Airfield :
LOGIN :

Register | Disclaimer

   EN    FR    IT 

 










Legend :    VFR   Marginal VFR   IFR   Intensive IFR   Very Intensive IFR
Visi :
Ceiling :
>= 8 km
>= 3000ft
5 to 8 km
1000 to 3000 ft
1500m to 5 km
500 to 1000 ft
800 to 1500m
200 to 500 ft
< 800m
< 200 ft
Symbols :   Thunderstorms  Fog  Heavy snow  Heavy precipitations  Wind > 20 kt
SIGMETs :     Misc.  Thunderstorms  Icing  Turbulence  Mountain Waves  Volcanic Ashes







- Airport Elevation : 1260 ft
- IATA code : LDE
- Download approach charts


LFBT - Tarbes / Ossun

CURRENT METAR :
  • 200630Z AUTO 24005KT 200V270 9000 RA SCT044 OVC054 10/08 Q1015 TEMPO 4000 -RA OVC010

EXPIRED METARs :
  • 200600Z AUTO 24004KT 9999 -RA BKN038 OVC046 10/08 Q1015 TEMPO 4000 -RA OVC010
  • 200530Z AUTO 22004KT 200V260 9999 FEW022/// BKN035/// BKN060/// ///TCU 09/08 Q1014 TEMPO 4000 -RA OVC010
  • 200500Z AUTO 17003KT 140V210 9999 FEW027/// BKN047/// OVC058/// ///TCU 09/08 Q1014 TEMPO OVC010
  • 200430Z AUTO 23005KT 190V270 9999 BKN037 OVC046 10/08 Q1014 TEMPO OVC010
  • 200400Z AUTO 26005KT 230V290 9999 SCT045 OVC054 10/08 Q1014 TEMPO OVC010
  • 200330Z AUTO 25006KT 220V290 9999 BKN022/// BKN027/// OVC056/// ///TCU 10/08 Q1014 TEMPO OVC010

TAF TAF LFBT
Valid from the 20 at 06:00 until the 21 at 06:00 UTC


200500Z 2006/2106 26008KT 9999 BKN020 BKN030
PROB40
TEMPO 2006/2010 4000 -RA OVC010
BECMG 2009/2011 SCT030TCU BKN050
BECMG 2018/2020 BKN028
PROB30
TEMPO 2017/2021 4000 SHRA
No reported NOTAMs for that airfield.



MET'MAP, your aeronautical weather chart ! - Copyright ORBIFLY December 2007 - Disclaimer

ORBIFLY MET'MAP TEAM :

Programming & Development : Alexandra Zaïnal
Concept & Development : Baudouin d'Aumeries
Co-Development & Prog : Marc-Olivier Méhu
Technical & hardware support : Manuel Goepfert

Contact : metmap@orbifly.com




SOURCES & CREDITS :

   NOAA